sensor_id;sensor_type;location;lat;lon;timestamp;P1;durP1;ratioP1;P2;durP2;ratioP2
73437;SDS011;66471;56.532;21.020;2024-03-02T07:00:02;25.00;;;15.82;;
73437;SDS011;66471;56.532;21.020;2024-03-02T07:02:31;26.00;;;14.88;;
73437;SDS011;66471;56.532;21.020;2024-03-02T07:04:59;26.20;;;13.93;;
73437;SDS011;66471;56.532;21.020;2024-03-02T07:07:26;27.40;;;15.05;;
73437;SDS011;66471;56.532;21.020;2024-03-02T07:09:53;25.87;;;14.17;;
73437;SDS011;66471;56.532;21.020;2024-03-02T07:12:20;24.85;;;14.32;;
73437;SDS011;66471;56.532;21.020;2024-03-02T07:14:47;25.35;;;14.00;;
73437;SDS011;66471;56.532;21.020;2024-03-02T07:17:33;27.20;;;14.90;;
73437;SDS011;66471;56.532;21.020;2024-03-02T07:20:00;32.83;;;18.02;;
73437;SDS011;66471;56.532;21.020;2024-03-02T07:22:27;28.40;;;14.23;;
73437;SDS011;66471;56.532;21.020;2024-03-02T07:24:54;29.73;;;16.02;;
73437;SDS011;66471;56.532;21.020;2024-03-02T07:27:22;28.52;;;15.13;;
73437;SDS011;66471;56.532;21.020;2024-03-02T07:29:49;27.33;;;14.95;;
73437;SDS011;66471;56.532;21.020;2024-03-02T07:32:17;25.77;;;16.00;;
73437;SDS011;66471;56.532;21.020;2024-03-02T07:34:44;30.20;;;17.40;;
73437;SDS011;66471;56.532;21.020;2024-03-02T07:37:11;27.85;;;14.63;;
73437;SDS011;66471;56.532;21.020;2024-03-02T07:39:38;25.48;;;14.93;;
73437;SDS011;66471;56.532;21.020;2024-03-02T07:42:05;28.40;;;15.20;;
73437;SDS011;66471;56.532;21.020;2024-03-02T07:44:33;27.00;;;14.73;;
73437;SDS011;66471;56.532;21.020;2024-03-02T07:47:00;24.57;;;12.60;;
73437;SDS011;66471;56.532;21.020;2024-03-02T07:49:27;29.30;;;15.65;;
73437;SDS011;66471;56.532;21.020;2024-03-02T07:51:55;21.73;;;12.20;;
73437;SDS011;66471;56.532;21.020;2024-03-02T07:54:22;30.42;;;15.15;;
73437;SDS011;66471;56.532;21.020;2024-03-02T07:56:49;24.48;;;13.77;;
73437;SDS011;66471;56.532;21.020;2024-03-02T07:59:17;26.70;;;14.73;;
73437;SDS011;66471;56.532;21.020;2024-03-02T08:01:44;27.33;;;13.85;;
73437;SDS011;66471;56.532;21.020;2024-03-02T08:04:12;27.58;;;15.98;;
73437;SDS011;66471;56.532;21.020;2024-03-02T08:06:39;25.42;;;14.60;;
73437;SDS011;66471;56.532;21.020;2024-03-02T08:09:06;30.55;;;16.40;;
73437;SDS011;66471;56.532;21.020;2024-03-02T08:11:36;23.53;;;13.00;;
73437;SDS011;66471;56.532;21.020;2024-03-02T08:14:04;26.10;;;13.50;;
73437;SDS011;66471;56.532;21.020;2024-03-02T08:16:31;29.35;;;17.45;;
73437;SDS011;66471;56.532;21.020;2024-03-02T08:18:59;24.23;;;12.85;;
73437;SDS011;66471;56.532;21.020;2024-03-02T08:21:27;23.92;;;15.30;;
73437;SDS011;66471;56.532;21.020;2024-03-02T08:23:57;30.67;;;14.00;;
73437;SDS011;66471;56.532;21.020;2024-03-02T08:26:24;29.58;;;17.63;;
73437;SDS011;66471;56.532;21.020;2024-03-02T08:28:55;23.92;;;14.07;;
73437;SDS011;66471;56.532;21.020;2024-03-02T08:31:22;29.38;;;14.65;;
73437;SDS011;66471;56.532;21.020;2024-03-02T08:33:50;25.52;;;14.45;;
73437;SDS011;66471;56.532;21.020;2024-03-02T08:36:17;23.73;;;13.33;;
73437;SDS011;66471;56.532;21.020;2024-03-02T08:38:44;26.15;;;15.88;;
73437;SDS011;66471;56.532;21.020;2024-03-02T08:41:11;26.65;;;15.05;;
73437;SDS011;66471;56.532;21.020;2024-03-02T08:43:40;26.17;;;14.65;;
73437;SDS011;66471;56.532;21.020;2024-03-02T08:46:08;27.63;;;16.42;;
73437;SDS011;66471;56.532;21.020;2024-03-02T08:48:35;26.80;;;13.33;;
73437;SDS011;66471;56.532;21.020;2024-03-02T08:51:03;29.40;;;14.55;;
73437;SDS011;66471;56.532;21.020;2024-03-02T08:53:32;23.42;;;13.05;;
73437;SDS011;66471;56.532;21.020;2024-03-02T08:56:00;26.15;;;13.75;;
73437;SDS011;66471;56.532;21.020;2024-03-02T08:58:28;30.20;;;16.70;;
73437;SDS011;66471;56.532;21.020;2024-03-02T09:00:56;30.90;;;14.57;;
73437;SDS011;66471;56.532;21.020;2024-03-02T09:03:23;27.70;;;15.57;;
73437;SDS011;66471;56.532;21.020;2024-03-02T09:05:50;23.05;;;12.63;;
73437;SDS011;66471;56.532;21.020;2024-03-02T09:08:17;28.92;;;14.60;;
73437;SDS011;66471;56.532;21.020;2024-03-02T09:10:44;25.48;;;15.95;;
73437;SDS011;66471;56.532;21.020;2024-03-02T09:13:12;36.90;;;19.90;;
73437;SDS011;66471;56.532;21.020;2024-03-02T09:15:39;34.92;;;19.90;;
73437;SDS011;66471;56.532;21.020;2024-03-02T09:18:07;27.92;;;17.08;;
73437;SDS011;66471;56.532;21.020;2024-03-02T09:20:34;28.40;;;15.38;;
73437;SDS011;66471;56.532;21.020;2024-03-02T09:23:01;36.83;;;22.00;;
73437;SDS011;66471;56.532;21.020;2024-03-02T09:25:28;31.00;;;18.03;;
73437;SDS011;66471;56.532;21.020;2024-03-02T09:27:55;32.67;;;18.50;;
73437;SDS011;66471;56.532;21.020;2024-03-02T09:30:23;27.90;;;16.30;;
73437;SDS011;66471;56.532;21.020;2024-03-02T09:32:50;32.08;;;17.45;;
73437;SDS011;66471;56.532;21.020;2024-03-02T09:35:17;32.60;;;19.33;;
73437;SDS011;66471;56.532;21.020;2024-03-02T09:37:45;26.47;;;14.17;;
73437;SDS011;66471;56.532;21.020;2024-03-02T09:40:13;32.95;;;19.05;;
73437;SDS011;66471;56.532;21.020;2024-03-02T09:42:40;33.47;;;19.23;;
73437;SDS011;66471;56.532;21.020;2024-03-02T09:45:08;36.83;;;20.17;;
73437;SDS011;66471;56.532;21.020;2024-03-02T09:47:36;31.80;;;17.92;;
73437;SDS011;66471;56.532;21.020;2024-03-02T09:50:03;29.17;;;16.63;;
73437;SDS011;66471;56.532;21.020;2024-03-02T09:52:30;38.75;;;21.67;;
73437;SDS011;66471;56.532;21.020;2024-03-02T09:54:58;30.70;;;17.67;;
73437;SDS011;66471;56.532;21.020;2024-03-02T09:57:25;31.33;;;16.20;;
73437;SDS011;66471;56.532;21.020;2024-03-02T09:59:52;29.95;;;15.95;;
73437;SDS011;66471;56.532;21.020;2024-03-02T10:02:20;32.67;;;16.20;;
73437;SDS011;66471;56.532;21.020;2024-03-02T10:04:48;31.70;;;17.55;;
73437;SDS011;66471;56.532;21.020;2024-03-02T10:07:17;26.95;;;17.98;;
73437;SDS011;66471;56.532;21.020;2024-03-02T10:09:45;30.25;;;16.50;;
73437;SDS011;66471;56.532;21.020;2024-03-02T10:12:16;29.50;;;19.92;;
73437;SDS011;66471;56.532;21.020;2024-03-02T10:14:45;28.70;;;17.67;;
73437;SDS011;66471;56.532;21.020;2024-03-02T10:17:16;28.15;;;16.55;;
73437;SDS011;66471;56.532;21.020;2024-03-02T10:19:44;30.63;;;18.38;;
73437;SDS011;66471;56.532;21.020;2024-03-02T10:22:11;28.77;;;17.48;;
73437;SDS011;66471;56.532;21.020;2024-03-02T10:24:40;33.13;;;19.08;;
73437;SDS011;66471;56.532;21.020;2024-03-02T10:27:15;32.67;;;21.23;;
73437;SDS011;66471;56.532;21.020;2024-03-02T10:29:49;39.45;;;19.00;;
73437;SDS011;66471;56.532;21.020;2024-03-02T10:32:26;34.30;;;22.88;;
73437;SDS011;66471;56.532;21.020;2024-03-02T10:34:53;38.15;;;22.33;;
73437;SDS011;66471;56.532;21.020;2024-03-02T10:37:22;38.83;;;20.58;;
73437;SDS011;66471;56.532;21.020;2024-03-02T10:39:50;31.83;;;20.77;;
73437;SDS011;66471;56.532;21.020;2024-03-02T10:42:19;34.30;;;19.45;;
73437;SDS011;66471;56.532;21.020;2024-03-02T10:44:47;37.92;;;22.45;;
73437;SDS011;66471;56.532;21.020;2024-03-02T10:47:15;35.05;;;18.48;;
73437;SDS011;66471;56.532;21.020;2024-03-02T10:49:44;33.85;;;18.85;;
73437;SDS011;66471;56.532;21.020;2024-03-02T10:52:13;30.17;;;19.07;;
73437;SDS011;66471;56.532;21.020;2024-03-02T10:54:40;32.88;;;17.98;;
73437;SDS011;66471;56.532;21.020;2024-03-02T10:57:07;33.60;;;19.50;;
73437;SDS011;66471;56.532;21.020;2024-03-02T10:59:37;33.75;;;20.92;;
73437;SDS011;66471;56.532;21.020;2024-03-02T11:02:18;38.15;;;21.35;;
73437;SDS011;66471;56.532;21.020;2024-03-02T11:04:47;38.20;;;18.37;;
73437;SDS011;66471;56.532;21.020;2024-03-02T11:07:16;36.10;;;20.42;;
73437;SDS011;66471;56.532;21.020;2024-03-02T11:09:49;36.13;;;19.05;;
73437;SDS011;66471;56.532;21.020;2024-03-02T11:12:39;32.10;;;18.95;;
73437;SDS011;66471;56.532;21.020;2024-03-02T11:15:10;31.73;;;19.35;;
73437;SDS011;66471;56.532;21.020;2024-03-02T11:17:42;35.03;;;20.57;;
73437;SDS011;66471;56.532;21.020;2024-03-02T11:20:10;35.25;;;19.65;;
73437;SDS011;66471;56.532;21.020;2024-03-02T11:22:38;33.08;;;18.88;;
73437;SDS011;66471;56.532;21.020;2024-03-02T11:25:05;36.95;;;20.77;;
73437;SDS011;66471;56.532;21.020;2024-03-02T11:33:04;33.35;;;19.23;;
73437;SDS011;66471;56.532;21.020;2024-03-02T11:35:41;34.80;;;20.50;;
73437;SDS011;66471;56.532;21.020;2024-03-02T11:38:13;35.17;;;20.88;;
73437;SDS011;66471;56.532;21.020;2024-03-02T11:40:41;33.58;;;20.42;;
73437;SDS011;66471;56.532;21.020;2024-03-02T11:43:08;39.03;;;20.97;;
73437;SDS011;66471;56.532;21.020;2024-03-02T11:45:36;33.08;;;17.15;;
73437;SDS011;66471;56.532;21.020;2024-03-02T11:48:08;31.40;;;19.67;;
73437;SDS011;66471;56.532;21.020;2024-03-02T11:50:46;31.13;;;17.85;;
73437;SDS011;66471;56.532;21.020;2024-03-02T11:53:16;35.80;;;19.17;;
73437;SDS011;66471;56.532;21.020;2024-03-02T11:55:45;33.43;;;17.70;;
73437;SDS011;66471;56.532;21.020;2024-03-02T11:58:16;34.85;;;21.90;;
73437;SDS011;66471;56.532;21.020;2024-03-02T12:00:44;33.15;;;18.08;;
73437;SDS011;66471;56.532;21.020;2024-03-02T12:03:14;34.22;;;17.90;;
73437;SDS011;66471;56.532;21.020;2024-03-02T12:05:42;34.88;;;20.17;;
73437;SDS011;66471;56.532;21.020;2024-03-02T12:08:11;30.60;;;16.57;;
73437;SDS011;66471;56.532;21.020;2024-03-02T12:10:39;37.40;;;19.58;;
73437;SDS011;66471;56.532;21.020;2024-03-02T12:13:06;34.05;;;20.45;;
73437;SDS011;66471;56.532;21.020;2024-03-02T12:15:37;35.17;;;16.45;;
73437;SDS011;66471;56.532;21.020;2024-03-02T12:18:05;32.28;;;19.58;;
73437;SDS011;66471;56.532;21.020;2024-03-02T12:20:33;31.10;;;16.67;;
73437;SDS011;66471;56.532;21.020;2024-03-02T12:23:01;36.53;;;20.10;;
73437;SDS011;66471;56.532;21.020;2024-03-02T12:25:29;31.55;;;19.88;;
73437;SDS011;66471;56.532;21.020;2024-03-02T12:27:59;29.15;;;17.35;;
73437;SDS011;66471;56.532;21.020;2024-03-02T12:30:29;36.20;;;19.60;;
73437;SDS011;66471;56.532;21.020;2024-03-02T12:32:57;33.13;;;17.23;;
73437;SDS011;66471;56.532;21.020;2024-03-02T12:35:24;32.10;;;18.75;;
73437;SDS011;66471;56.532;21.020;2024-03-02T12:37:52;47.58;;;26.23;;
73437;SDS011;66471;56.532;21.020;2024-03-02T12:40:20;33.22;;;19.45;;
73437;SDS011;66471;56.532;21.020;2024-03-02T12:42:50;39.33;;;22.17;;
73437;SDS011;66471;56.532;21.020;2024-03-02T12:45:18;31.87;;;17.67;;
73437;SDS011;66471;56.532;21.020;2024-03-02T12:47:51;34.50;;;20.13;;
73437;SDS011;66471;56.532;21.020;2024-03-02T12:50:20;34.00;;;21.15;;
73437;SDS011;66471;56.532;21.020;2024-03-02T12:52:51;35.33;;;17.60;;
73437;SDS011;66471;56.532;21.020;2024-03-02T12:55:22;30.60;;;17.67;;
73437;SDS011;66471;56.532;21.020;2024-03-02T12:57:50;34.00;;;17.70;;
73437;SDS011;66471;56.532;21.020;2024-03-02T13:00:20;35.35;;;19.25;;
73437;SDS011;66471;56.532;21.020;2024-03-02T13:02:49;35.22;;;19.70;;
73437;SDS011;66471;56.532;21.020;2024-03-02T13:05:18;30.95;;;17.50;;
73437;SDS011;66471;56.532;21.020;2024-03-02T13:07:49;35.75;;;18.48;;
73437;SDS011;66471;56.532;21.020;2024-03-02T13:10:17;35.43;;;18.97;;
73437;SDS011;66471;56.532;21.020;2024-03-02T13:12:45;36.88;;;19.70;;
73437;SDS011;66471;56.532;21.020;2024-03-02T13:15:12;35.70;;;20.08;;
73437;SDS011;66471;56.532;21.020;2024-03-02T13:17:46;36.35;;;19.80;;
73437;SDS011;66471;56.532;21.020;2024-03-02T13:20:14;38.03;;;24.02;;
73437;SDS011;66471;56.532;21.020;2024-03-02T13:22:43;31.93;;;19.40;;
73437;SDS011;66471;56.532;21.020;2024-03-02T13:25:11;37.17;;;20.17;;
73437;SDS011;66471;56.532;21.020;2024-03-02T13:27:38;33.97;;;20.48;;
73437;SDS011;66471;56.532;21.020;2024-03-02T13:30:08;39.92;;;22.55;;
73437;SDS011;66471;56.532;21.020;2024-03-02T13:32:36;47.40;;;25.58;;
73437;SDS011;66471;56.532;21.020;2024-03-02T13:35:03;48.50;;;26.03;;
73437;SDS011;66471;56.532;21.020;2024-03-02T13:37:31;44.90;;;25.17;;
73437;SDS011;66471;56.532;21.020;2024-03-02T13:39:58;44.63;;;27.35;;
73437;SDS011;66471;56.532;21.020;2024-03-02T13:42:26;40.80;;;22.35;;
73437;SDS011;66471;56.532;21.020;2024-03-02T13:44:54;43.28;;;25.33;;
73437;SDS011;66471;56.532;21.020;2024-03-02T13:47:21;33.60;;;20.03;;
73437;SDS011;66471;56.532;21.020;2024-03-02T13:49:49;43.90;;;24.77;;
73437;SDS011;66471;56.532;21.020;2024-03-02T13:52:16;42.28;;;24.83;;
73437;SDS011;66471;56.532;21.020;2024-03-02T13:54:44;49.47;;;26.92;;
73437;SDS011;66471;56.532;21.020;2024-03-02T13:57:14;41.72;;;25.02;;
73437;SDS011;66471;56.532;21.020;2024-03-02T13:59:55;38.67;;;21.63;;
73437;SDS011;66471;56.532;21.020;2024-03-02T14:02:24;39.58;;;21.58;;
73437;SDS011;66471;56.532;21.020;2024-03-02T14:04:56;45.05;;;25.08;;
73437;SDS011;66471;56.532;21.020;2024-03-02T14:07:24;46.10;;;25.48;;
73437;SDS011;66471;56.532;21.020;2024-03-02T14:09:51;46.85;;;26.13;;
73437;SDS011;66471;56.532;21.020;2024-03-02T14:12:19;39.73;;;20.40;;
73437;SDS011;66471;56.532;21.020;2024-03-02T14:14:46;38.53;;;22.20;;
73437;SDS011;66471;56.532;21.020;2024-03-02T14:17:13;46.80;;;26.48;;
73437;SDS011;66471;56.532;21.020;2024-03-02T14:19:42;46.38;;;24.45;;
73437;SDS011;66471;56.532;21.020;2024-03-02T14:22:09;46.08;;;22.85;;
73437;SDS011;66471;56.532;21.020;2024-03-02T14:24:39;44.80;;;22.00;;
73437;SDS011;66471;56.532;21.020;2024-03-02T14:27:07;51.92;;;25.83;;
73437;SDS011;66471;56.532;21.020;2024-03-02T14:29:50;42.33;;;22.55;;
73437;SDS011;66471;56.532;21.020;2024-03-02T14:32:17;56.63;;;25.20;;
73437;SDS011;66471;56.532;21.020;2024-03-02T14:34:45;50.25;;;27.63;;
73437;SDS011;66471;56.532;21.020;2024-03-02T14:37:14;44.63;;;23.77;;
73437;SDS011;66471;56.532;21.020;2024-03-02T14:39:43;40.00;;;21.58;;
73437;SDS011;66471;56.532;21.020;2024-03-02T14:42:11;41.72;;;23.15;;
73437;SDS011;66471;56.532;21.020;2024-03-02T14:44:38;44.30;;;24.83;;
73437;SDS011;66471;56.532;21.020;2024-03-02T14:47:06;43.67;;;23.95;;
73437;SDS011;66471;56.532;21.020;2024-03-02T14:49:34;40.97;;;21.57;;
73437;SDS011;66471;56.532;21.020;2024-03-02T14:52:04;43.42;;;22.15;;
73437;SDS011;66471;56.532;21.020;2024-03-02T14:54:32;44.05;;;23.77;;
73437;SDS011;66471;56.532;21.020;2024-03-02T14:57:01;42.67;;;24.55;;
73437;SDS011;66471;56.532;21.020;2024-03-02T14:59:29;46.00;;;24.88;;
73437;SDS011;66471;56.532;21.020;2024-03-02T15:01:56;38.97;;;21.63;;
73437;SDS011;66471;56.532;21.020;2024-03-02T15:04:24;39.75;;;20.20;;
73437;SDS011;66471;56.532;21.020;2024-03-02T15:06:51;40.65;;;19.90;;
73437;SDS011;66471;56.532;21.020;2024-03-02T15:09:18;40.42;;;22.75;;
73437;SDS011;66471;56.532;21.020;2024-03-02T15:11:46;37.40;;;21.85;;
73437;SDS011;66471;56.532;21.020;2024-03-02T15:14:13;36.67;;;19.43;;
73437;SDS011;66471;56.532;21.020;2024-03-02T15:16:40;37.08;;;18.83;;
73437;SDS011;66471;56.532;21.020;2024-03-02T15:19:09;39.90;;;21.35;;
73437;SDS011;66471;56.532;21.020;2024-03-02T15:21:36;36.25;;;18.52;;
73437;SDS011;66471;56.532;21.020;2024-03-02T15:24:03;44.40;;;22.20;;
73437;SDS011;66471;56.532;21.020;2024-03-02T15:26:31;35.97;;;21.43;;
73437;SDS011;66471;56.532;21.020;2024-03-02T15:28:59;37.67;;;21.08;;
73437;SDS011;66471;56.532;21.020;2024-03-02T15:31:29;38.47;;;20.45;;
73437;SDS011;66471;56.532;21.020;2024-03-02T15:33:56;37.45;;;19.10;;
73437;SDS011;66471;56.532;21.020;2024-03-02T15:36:25;37.28;;;18.60;;
73437;SDS011;66471;56.532;21.020;2024-03-02T15:38:52;35.40;;;18.87;;
73437;SDS011;66471;56.532;21.020;2024-03-02T15:41:19;32.33;;;16.23;;
73437;SDS011;66471;56.532;21.020;2024-03-02T15:43:49;35.72;;;19.25;;
73437;SDS011;66471;56.532;21.020;2024-03-02T15:46:16;36.90;;;19.45;;
73437;SDS011;66471;56.532;21.020;2024-03-02T15:48:44;37.65;;;22.52;;
73437;SDS011;66471;56.532;21.020;2024-03-02T15:51:11;32.50;;;17.30;;
73437;SDS011;66471;56.532;21.020;2024-03-02T15:53:39;35.05;;;18.42;;
73437;SDS011;66471;56.532;21.020;2024-03-02T15:56:06;37.33;;;19.50;;
73437;SDS011;66471;56.532;21.020;2024-03-02T15:58:35;36.08;;;18.73;;
73437;SDS011;66471;56.532;21.020;2024-03-02T16:01:04;39.08;;;21.63;;
73437;SDS011;66471;56.532;21.020;2024-03-02T16:03:34;39.63;;;20.00;;
73437;SDS011;66471;56.532;21.020;2024-03-02T16:06:02;39.45;;;20.17;;
73437;SDS011;66471;56.532;21.020;2024-03-02T16:08:29;38.60;;;20.42;;
73437;SDS011;66471;56.532;21.020;2024-03-02T16:10:56;37.95;;;20.55;;
73437;SDS011;66471;56.532;21.020;2024-03-02T16:13:26;37.55;;;21.98;;
73437;SDS011;66471;56.532;21.020;2024-03-02T16:15:55;39.97;;;20.30;;
73437;SDS011;66471;56.532;21.020;2024-03-02T16:18:22;41.42;;;22.70;;
73437;SDS011;66471;56.532;21.020;2024-03-02T16:20:50;34.67;;;19.35;;
73437;SDS011;66471;56.532;21.020;2024-03-02T16:23:17;39.90;;;22.50;;
73437;SDS011;66471;56.532;21.020;2024-03-02T16:25:44;54.05;;;26.70;;
73437;SDS011;66471;56.532;21.020;2024-03-02T16:28:11;47.93;;;25.67;;
73437;SDS011;66471;56.532;21.020;2024-03-02T16:30:38;38.33;;;22.83;;
73437;SDS011;66471;56.532;21.020;2024-03-02T16:33:06;40.35;;;22.25;;
73437;SDS011;66471;56.532;21.020;2024-03-02T16:35:33;36.70;;;21.00;;
73437;SDS011;66471;56.532;21.020;2024-03-02T16:38:00;39.03;;;20.38;;
73437;SDS011;66471;56.532;21.020;2024-03-02T16:40:27;40.10;;;19.43;;
73437;SDS011;66471;56.532;21.020;2024-03-02T16:42:57;41.63;;;22.38;;
73437;SDS011;66471;56.532;21.020;2024-03-02T16:45:24;38.35;;;24.08;;
73437;SDS011;66471;56.532;21.020;2024-03-02T16:47:52;43.40;;;21.63;;
73437;SDS011;66471;56.532;21.020;2024-03-02T16:50:19;36.92;;;20.10;;
73437;SDS011;66471;56.532;21.020;2024-03-02T16:52:46;34.57;;;19.67;;
73437;SDS011;66471;56.532;21.020;2024-03-02T16:55:13;32.42;;;18.65;;
73437;SDS011;66471;56.532;21.020;2024-03-02T16:57:41;34.33;;;19.90;;
73437;SDS011;66471;56.532;21.020;2024-03-02T17:00:08;35.08;;;18.90;;
73437;SDS011;66471;56.532;21.020;2024-03-02T17:02:36;39.50;;;20.25;;
73437;SDS011;66471;56.532;21.020;2024-03-02T17:05:04;39.17;;;21.97;;
73437;SDS011;66471;56.532;21.020;2024-03-02T17:07:31;43.00;;;24.42;;
73437;SDS011;66471;56.532;21.020;2024-03-02T17:09:58;35.10;;;19.92;;
73437;SDS011;66471;56.532;21.020;2024-03-02T17:12:26;44.83;;;25.33;;
73437;SDS011;66471;56.532;21.020;2024-03-02T17:14:53;46.30;;;27.23;;
73437;SDS011;66471;56.532;21.020;2024-03-02T17:17:20;35.03;;;20.50;;
73437;SDS011;66471;56.532;21.020;2024-03-02T17:19:48;34.45;;;18.42;;
73437;SDS011;66471;56.532;21.020;2024-03-02T17:22:15;34.78;;;18.55;;
73437;SDS011;66471;56.532;21.020;2024-03-02T17:24:43;34.83;;;18.67;;
73437;SDS011;66471;56.532;21.020;2024-03-02T17:27:11;32.28;;;17.70;;
73437;SDS011;66471;56.532;21.020;2024-03-02T17:29:38;31.20;;;18.13;;
73437;SDS011;66471;56.532;21.020;2024-03-02T17:32:05;33.83;;;17.48;;
73437;SDS011;66471;56.532;21.020;2024-03-02T17:34:33;39.90;;;23.45;;
73437;SDS011;66471;56.532;21.020;2024-03-02T17:37:02;40.45;;;22.73;;
73437;SDS011;66471;56.532;21.020;2024-03-02T17:39:42;45.08;;;20.95;;
73437;SDS011;66471;56.532;21.020;2024-03-02T17:42:09;40.27;;;20.57;;
73437;SDS011;66471;56.532;21.020;2024-03-02T17:44:37;34.08;;;18.77;;
73437;SDS011;66471;56.532;21.020;2024-03-02T17:47:04;31.02;;;18.05;;
73437;SDS011;66471;56.532;21.020;2024-03-02T17:49:32;31.35;;;17.17;;
73437;SDS011;66471;56.532;21.020;2024-03-02T17:52:00;31.38;;;17.48;;
73437;SDS011;66471;56.532;21.020;2024-03-02T17:54:27;32.97;;;15.40;;
73437;SDS011;66471;56.532;21.020;2024-03-02T17:56:55;34.10;;;17.73;;
73437;SDS011;66471;56.532;21.020;2024-03-02T17:59:23;35.25;;;17.48;;
